createdAt,value
2023-03-06T00:00:55.491Z,3.60
2023-03-06T00:03:26.027Z,3.50
2023-03-06T00:05:57.120Z,3.60
2023-03-06T00:08:25.500Z,3.50
2023-03-06T00:10:53.490Z,3.70
2023-03-06T00:13:21.611Z,3.50
2023-03-06T00:15:50.220Z,3.40
2023-03-06T00:18:18.093Z,3.20
2023-03-06T00:20:46.074Z,3.40
2023-03-06T00:23:15.488Z,3.50
2023-03-06T00:25:44.586Z,3.10
2023-03-06T00:28:14.762Z,3.20
2023-03-06T00:30:43.259Z,3.10
2023-03-06T00:33:11.291Z,2.90
2023-03-06T00:35:39.796Z,2.80
2023-03-06T00:38:07.719Z,2.90
2023-03-06T00:40:36.880Z,2.70
2023-03-06T00:43:04.659Z,2.50
2023-03-06T00:45:32.660Z,2.60
2023-03-06T00:48:00.552Z,2.80
2023-03-06T00:50:29.183Z,2.70
2023-03-06T00:52:56.987Z,2.80
2023-03-06T00:55:24.796Z,2.50
2023-03-06T00:57:53.973Z,2.60
2023-03-06T01:00:22.042Z,2.50
2023-03-06T01:02:49.940Z,2.70
2023-03-06T01:05:17.884Z,2.70
2023-03-06T01:07:45.700Z,2.90
2023-03-06T01:10:13.794Z,2.50
2023-03-06T01:12:41.659Z,2.70
2023-03-06T01:15:13.635Z,2.80
2023-03-06T01:17:41.435Z,2.70
2023-03-06T01:20:12.766Z,2.70
2023-03-06T01:22:40.583Z,2.70
2023-03-06T01:25:09.133Z,2.60
2023-03-06T01:27:36.923Z,2.70
2023-03-06T01:30:05.497Z,2.60
2023-03-06T01:32:34.784Z,2.50
2023-03-06T01:35:03.758Z,2.60
2023-03-06T01:37:31.627Z,2.70
2023-03-06T01:39:59.467Z,2.60
2023-03-06T01:42:27.279Z,2.40
2023-03-06T01:45:00.111Z,2.40
2023-03-06T01:47:28.093Z,2.40
2023-03-06T01:49:58.710Z,2.20
2023-03-06T01:52:30.267Z,1.90
2023-03-06T01:55:03.049Z,2.10
2023-03-06T01:57:34.709Z,1.90
2023-03-06T02:00:08.066Z,1.90
2023-03-06T02:02:36.339Z,1.90
2023-03-06T02:05:08.382Z,2.00
2023-03-06T02:07:37.121Z,1.80
2023-03-06T02:10:05.594Z,1.90
2023-03-06T02:12:34.464Z,1.80
2023-03-06T02:15:02.410Z,2.00
2023-03-06T02:17:31.061Z,1.80
2023-03-06T02:20:09.901Z,1.60
2023-03-06T02:22:44.544Z,1.70
2023-03-06T02:25:27.110Z,1.80
2023-03-06T02:27:54.932Z,1.70
2023-03-06T02:30:23.437Z,1.80
2023-03-06T02:32:51.240Z,1.80
2023-03-06T02:35:20.773Z,1.70
2023-03-06T02:37:48.689Z,1.60
2023-03-06T02:40:19.553Z,1.50
2023-03-06T02:42:51.035Z,1.80
2023-03-06T02:45:23.853Z,1.50
2023-03-06T02:47:51.657Z,1.70
2023-03-06T02:50:19.705Z,1.60
2023-03-06T02:52:47.552Z,1.80
2023-03-06T02:55:15.412Z,1.80
2023-03-06T02:57:43.302Z,1.80
2023-03-06T03:00:14.110Z,1.70
2023-03-06T03:02:42.414Z,1.70
2023-03-06T03:05:10.512Z,1.60
2023-03-06T03:07:38.347Z,1.80
2023-03-06T03:10:07.073Z,1.90
2023-03-06T03:12:34.903Z,1.70
2023-03-06T03:15:02.763Z,1.80
2023-03-06T03:17:31.999Z,1.70
2023-03-06T03:20:00.279Z,1.90
2023-03-06T03:22:28.145Z,1.70
2023-03-06T03:24:56.159Z,1.70
2023-03-06T03:27:24.091Z,1.70
2023-03-06T03:29:52.064Z,1.70
2023-03-06T03:32:19.990Z,1.70
2023-03-06T03:34:49.316Z,1.70
2023-03-06T03:37:17.224Z,1.70
2023-03-06T03:39:45.124Z,1.80
2023-03-06T03:42:13.043Z,1.90
2023-03-06T03:44:40.872Z,1.90
2023-03-06T03:47:08.772Z,1.70
2023-03-06T03:49:36.600Z,1.70
2023-03-06T03:52:06.221Z,1.70
2023-03-06T03:54:34.150Z,1.80
2023-03-06T03:57:02.011Z,1.70
2023-03-06T03:59:29.847Z,1.60
2023-03-06T04:01:58.153Z,1.80
2023-03-06T04:04:26.576Z,1.80
2023-03-06T04:06:54.468Z,1.80
2023-03-06T04:09:24.192Z,1.70
2023-03-06T04:11:52.070Z,1.70
2023-03-06T04:14:19.913Z,1.70
2023-03-06T04:16:47.836Z,1.80
2023-03-06T04:19:15.799Z,1.60
2023-03-06T04:21:43.685Z,1.90
2023-03-06T04:24:11.572Z,1.80
2023-03-06T04:26:40.804Z,1.90
2023-03-06T04:29:08.755Z,1.70
2023-03-06T04:31:36.646Z,2.00
2023-03-06T04:34:04.986Z,1.90
2023-03-06T04:36:35.272Z,1.90
2023-03-06T04:39:03.406Z,1.90
2023-03-06T04:41:31.356Z,1.80
2023-03-06T04:44:00.637Z,1.90
2023-03-06T04:46:28.439Z,1.80
2023-03-06T04:48:56.260Z,1.90
2023-03-06T04:51:24.090Z,1.80
2023-03-06T04:53:52.194Z,1.90
2023-03-06T04:56:20.062Z,1.80
2023-03-06T04:58:48.211Z,1.90
2023-03-06T05:01:17.481Z,1.90
2023-03-06T05:03:45.326Z,1.90
2023-03-06T05:06:13.388Z,1.90
2023-03-06T05:08:41.277Z,2.00
2023-03-06T05:11:09.306Z,1.90
2023-03-06T05:13:37.228Z,2.10
2023-03-06T05:16:06.365Z,1.80
2023-03-06T05:18:36.777Z,1.80
2023-03-06T05:21:05.983Z,2.10
2023-03-06T05:23:36.141Z,1.90
2023-03-06T05:26:08.012Z,2.00
2023-03-06T05:28:36.030Z,2.00
2023-03-06T05:31:03.861Z,2.10
2023-03-06T05:33:32.724Z,1.90
2023-03-06T05:36:02.532Z,1.80
2023-03-06T05:38:30.571Z,1.90
2023-03-06T05:40:58.390Z,2.00
2023-03-06T05:43:26.427Z,1.90
2023-03-06T05:46:02.353Z,2.10
2023-03-06T05:48:30.298Z,2.00
2023-03-06T05:50:58.448Z,1.90
2023-03-06T05:53:29.274Z,2.10
2023-03-06T05:55:58.589Z,2.20
2023-03-06T05:58:26.595Z,2.10
2023-03-06T06:00:54.504Z,1.90
2023-03-06T06:03:22.510Z,1.90
2023-03-06T06:05:50.832Z,1.90
2023-03-06T06:08:18.827Z,1.70
2023-03-06T06:10:48.022Z,1.50
2023-03-06T06:13:15.857Z,1.50
2023-03-06T06:15:43.751Z,1.50
2023-03-06T06:18:11.657Z,1.20
2023-03-06T06:20:40.079Z,1.50
2023-03-06T06:23:07.976Z,1.10
2023-03-06T06:25:35.805Z,1.30
2023-03-06T06:28:05.644Z,1.00
2023-03-06T06:30:34.424Z,1.30
2023-03-06T06:33:02.257Z,1.30
2023-03-06T06:35:30.102Z,1.30
2023-03-06T06:37:57.979Z,1.30
2023-03-06T06:40:27.483Z,1.50
2023-03-06T06:42:55.331Z,1.20
2023-03-06T06:45:24.511Z,1.30
2023-03-06T06:47:52.410Z,1.60
2023-03-06T06:50:20.692Z,1.70
2023-03-06T06:52:48.590Z,1.60
2023-03-06T06:55:16.708Z,1.40
2023-03-06T06:57:44.798Z,1.40
2023-03-06T07:00:15.255Z,1.60
2023-03-06T07:02:44.487Z,1.50
2023-03-06T07:05:13.006Z,1.50
2023-03-06T07:07:40.845Z,1.40
2023-03-06T07:10:13.229Z,1.50
2023-03-06T07:12:41.100Z,1.50
2023-03-06T07:15:10.260Z,1.40
2023-03-06T07:17:38.108Z,1.40
2023-03-06T07:20:10.189Z,1.50
2023-03-06T07:22:50.433Z,1.60
2023-03-06T07:25:20.293Z,1.60
2023-03-06T07:27:53.252Z,1.60
2023-03-06T07:30:23.250Z,1.60
2023-03-06T07:32:53.802Z,1.60
2023-03-06T07:35:23.959Z,1.50
2023-03-06T07:37:52.172Z,1.90
2023-03-06T07:40:20.828Z,1.70
2023-03-06T07:42:49.291Z,1.70
2023-03-06T07:45:17.500Z,1.80
2023-03-06T07:47:45.352Z,1.90
2023-03-06T07:50:13.640Z,1.90
2023-03-06T07:52:42.822Z,1.80
2023-03-06T07:55:11.592Z,2.10
2023-03-06T07:57:39.963Z,2.00
2023-03-06T08:00:11.308Z,2.00
2023-03-06T08:02:39.233Z,2.00
2023-03-06T08:05:08.756Z,2.10
2023-03-06T08:07:37.044Z,2.20
2023-03-06T08:10:07.013Z,2.40
2023-03-06T08:12:34.861Z,2.20
2023-03-06T08:15:03.406Z,2.20
2023-03-06T08:17:31.206Z,2.30
2023-03-06T08:19:59.185Z,2.30
2023-03-06T08:22:27.036Z,2.20
2023-03-06T08:24:56.282Z,2.30
2023-03-06T08:27:25.526Z,2.20
2023-03-06T08:29:53.375Z,2.40
2023-03-06T08:32:21.253Z,2.50
2023-03-06T08:34:49.105Z,2.50
2023-03-06T08:37:16.953Z,2.40
2023-03-06T08:39:44.798Z,2.20
2023-03-06T08:42:12.868Z,2.50
2023-03-06T08:44:42.127Z,2.30
2023-03-06T08:47:09.989Z,2.50
2023-03-06T08:49:39.475Z,2.40
2023-03-06T08:52:07.724Z,2.60
2023-03-06T08:54:36.420Z,2.70
2023-03-06T08:57:04.434Z,2.80
2023-03-06T08:59:32.290Z,3.00
2023-03-06T09:02:01.547Z,2.90
2023-03-06T09:04:31.573Z,3.10
2023-03-06T09:07:01.581Z,3.20
2023-03-06T09:09:29.445Z,3.00
2023-03-06T09:11:57.284Z,3.10
2023-03-06T09:14:25.101Z,3.10
2023-03-06T09:16:53.047Z,3.20
2023-03-06T09:19:22.275Z,3.10
2023-03-06T09:21:50.122Z,3.20
2023-03-06T09:24:18.016Z,3.20
2023-03-06T09:26:47.649Z,3.30
2023-03-06T09:29:17.453Z,3.30
2023-03-06T09:31:45.484Z,3.50
2023-03-06T09:34:13.409Z,4.00
2023-03-06T09:36:55.543Z,3.90
2023-03-06T09:39:25.534Z,3.90
2023-03-06T09:41:54.208Z,4.10
2023-03-06T09:44:25.904Z,4.20
2023-03-06T09:47:06.865Z,4.20
2023-03-06T09:49:43.709Z,4.40
2023-03-06T09:52:28.098Z,4.50
2023-03-06T09:54:58.252Z,4.40
2023-03-06T09:57:28.317Z,4.50
2023-03-06T10:00:01.423Z,4.60
2023-03-06T10:02:38.085Z,4.50
2023-03-06T10:05:11.442Z,4.70
2023-03-06T10:07:47.492Z,4.60
2023-03-06T10:10:21.655Z,4.40
2023-03-06T10:12:57.689Z,4.40
2023-03-06T10:15:29.057Z,4.70
2023-03-06T10:17:57.519Z,4.80
2023-03-06T10:20:37.348Z,4.80
2023-03-06T10:23:24.885Z,4.50
2023-03-06T10:25:59.760Z,4.50
2023-03-06T10:28:30.886Z,5.20
2023-03-06T10:31:03.917Z,5.10
2023-03-06T10:33:48.634Z,5.00
2023-03-06T10:36:18.619Z,5.30
2023-03-06T10:38:51.160Z,5.40
2023-03-06T10:41:25.741Z,5.50
2023-03-06T10:44:19.723Z,5.80
2023-03-06T10:46:51.399Z,6.00
2023-03-06T10:49:38.359Z,6.10
2023-03-06T10:52:20.338Z,6.30
2023-03-06T10:54:49.854Z,6.10
2023-03-06T10:57:26.280Z,5.80
2023-03-06T10:59:56.128Z,5.60
2023-03-06T11:02:30.342Z,5.60
2023-03-06T11:04:59.939Z,5.50
2023-03-06T11:07:29.242Z,5.50
2023-03-06T11:10:18.911Z,5.30
2023-03-06T11:12:59.650Z,5.30
2023-03-06T11:15:28.826Z,5.50
2023-03-06T11:18:00.648Z,5.70
2023-03-06T11:20:44.902Z,5.70
2023-03-06T11:23:20.198Z,5.90
2023-03-06T11:25:53.808Z,6.00
2023-03-06T11:28:26.896Z,5.90
2023-03-06T11:30:59.685Z,6.00
2023-03-06T11:33:32.215Z,6.40
2023-03-06T11:36:09.580Z,6.40
2023-03-06T11:38:45.007Z,6.40
2023-03-06T11:41:21.671Z,6.50
2023-03-06T11:43:57.823Z,6.60
2023-03-06T11:46:29.792Z,6.60
2023-03-06T11:49:05.397Z,6.90
2023-03-06T11:51:38.940Z,6.60
2023-03-06T11:54:07.081Z,6.60
2023-03-06T11:56:48.993Z,6.70
2023-03-06T11:59:30.109Z,6.80
2023-03-06T12:02:06.849Z,6.60
2023-03-06T12:04:51.495Z,6.60
2023-03-06T12:07:31.851Z,6.50
2023-03-06T12:10:10.712Z,6.70
2023-03-06T12:13:07.118Z,6.80
2023-03-06T12:15:49.707Z,6.70
2023-03-06T12:18:30.485Z,6.90
2023-03-06T12:21:05.538Z,7.00
2023-03-06T12:23:52.763Z,7.10
2023-03-06T12:26:40.218Z,7.20
2023-03-06T12:29:23.684Z,6.80
2023-03-06T12:32:01.945Z,6.50
2023-03-06T12:34:42.411Z,6.60
2023-03-06T12:37:22.296Z,5.90
2023-03-06T12:40:15.832Z,6.00
2023-03-06T12:43:03.733Z,6.10
2023-03-06T12:45:34.062Z,6.30
2023-03-06T12:48:02.781Z,6.10
2023-03-06T12:50:33.218Z,6.30
2023-03-06T12:53:05.454Z,6.10
2023-03-06T12:55:40.616Z,6.30
2023-03-06T12:58:48.453Z,6.20
2023-03-06T13:01:38.251Z,6.50
2023-03-06T13:04:29.554Z,6.50
2023-03-06T13:07:12.266Z,6.30
2023-03-06T13:09:57.510Z,6.50
2023-03-06T13:12:41.723Z,6.60
2023-03-06T13:15:42.950Z,6.60
2023-03-06T13:18:47.141Z,6.50
2023-03-06T13:22:01.246Z,6.50
2023-03-06T13:24:31.555Z,6.70
2023-03-06T13:27:07.648Z,6.50
2023-03-06T13:30:22.952Z,6.60
2023-03-06T13:32:53.046Z,6.70
2023-03-06T13:35:52.001Z,6.70
2023-03-06T13:38:53.893Z,6.90
2023-03-06T13:41:45.152Z,7.10
2023-03-06T13:44:50.810Z,7.40
2023-03-06T13:48:10.568Z,7.50
2023-03-06T13:50:40.940Z,7.30
2023-03-06T13:53:44.388Z,7.10
2023-03-06T13:56:47.532Z,7.20
2023-03-06T13:59:45.841Z,7.00
2023-03-06T14:02:40.664Z,7.10
2023-03-06T14:05:13.359Z,7.10
2023-03-06T14:07:44.044Z,6.90
2023-03-06T14:10:25.617Z,6.60
2023-03-06T14:13:02.839Z,6.80
2023-03-06T14:15:38.120Z,6.70
2023-03-06T14:18:08.506Z,6.80
2023-03-06T14:20:43.225Z,7.20
2023-03-06T14:23:29.196Z,7.10
2023-03-06T14:26:03.850Z,7.40
2023-03-06T14:28:33.791Z,7.60
2023-03-06T14:31:03.531Z,7.60
2023-03-06T14:33:33.989Z,7.70
2023-03-06T14:36:04.329Z,7.60
2023-03-06T14:38:37.165Z,7.50
2023-03-06T14:41:07.546Z,7.60
2023-03-06T14:43:35.438Z,7.30
2023-03-06T14:46:05.103Z,7.20
2023-03-06T14:48:42.261Z,7.10
2023-03-06T14:51:17.514Z,6.90
2023-03-06T14:53:48.477Z,6.90
2023-03-06T14:56:20.073Z,7.00
2023-03-06T14:58:54.023Z,7.10
2023-03-06T15:01:32.566Z,6.90
2023-03-06T15:04:01.939Z,6.90
2023-03-06T15:06:34.390Z,6.90
2023-03-06T15:09:07.593Z,6.90
2023-03-06T15:11:57.495Z,6.80
2023-03-06T15:14:33.167Z,6.60
2023-03-06T15:17:22.940Z,6.60
2023-03-06T15:19:54.131Z,6.60
2023-03-06T15:22:37.294Z,6.60
2023-03-06T15:25:26.503Z,6.60
2023-03-06T15:27:58.123Z,6.60
2023-03-06T15:30:29.193Z,6.70
2023-03-06T15:33:24.717Z,6.60
2023-03-06T15:35:56.869Z,6.70
2023-03-06T15:38:30.986Z,6.90
2023-03-06T15:41:01.009Z,6.70
2023-03-06T15:43:35.288Z,6.70
2023-03-06T15:46:05.851Z,6.70
2023-03-06T15:48:35.262Z,6.80
2023-03-06T15:51:04.646Z,6.80
2023-03-06T15:53:32.510Z,6.90
2023-03-06T15:56:00.750Z,6.70
2023-03-06T15:58:32.002Z,6.90
2023-03-06T16:00:59.899Z,6.80
2023-03-06T16:03:27.821Z,6.80
2023-03-06T16:05:55.652Z,6.60
2023-03-06T16:08:23.479Z,6.70
2023-03-06T16:10:52.402Z,6.60
2023-03-06T16:13:25.964Z,6.70
2023-03-06T16:15:55.690Z,6.60
2023-03-06T16:18:23.620Z,6.50
2023-03-06T16:20:51.452Z,6.50
2023-03-06T16:23:19.284Z,6.40
2023-03-06T16:25:49.907Z,6.40
2023-03-06T16:28:18.371Z,6.40
2023-03-06T16:30:46.656Z,6.20
2023-03-06T16:33:15.921Z,6.30
2023-03-06T16:35:46.429Z,6.40
2023-03-06T16:38:15.504Z,6.30
2023-03-06T16:40:43.328Z,6.20
2023-03-06T16:43:13.610Z,6.30
2023-03-06T16:45:43.105Z,6.20
2023-03-06T16:48:17.768Z,6.10
2023-03-06T16:50:45.997Z,6.20
2023-03-06T16:53:15.314Z,6.00
2023-03-06T16:55:43.192Z,5.70
2023-03-06T16:58:11.018Z,5.70
2023-03-06T17:00:38.835Z,5.80
2023-03-06T17:03:07.347Z,5.60
2023-03-06T17:05:37.879Z,5.60
2023-03-06T17:08:06.178Z,5.40
2023-03-06T17:10:34.429Z,5.40
2023-03-06T17:13:02.309Z,5.50
2023-03-06T17:15:30.238Z,5.20
2023-03-06T17:17:58.677Z,5.40
2023-03-06T17:20:26.514Z,5.50
2023-03-06T17:22:55.709Z,5.30
2023-03-06T17:25:23.596Z,5.60
2023-03-06T17:27:51.411Z,5.30
2023-03-06T17:30:19.286Z,5.00
2023-03-06T17:32:47.160Z,4.50
2023-03-06T17:35:15.008Z,4.30
2023-03-06T17:37:42.844Z,3.90
2023-03-06T17:40:15.452Z,3.70
2023-03-06T17:42:43.327Z,3.50
2023-03-06T17:45:11.998Z,3.50
2023-03-06T17:47:39.826Z,3.30
2023-03-06T17:50:08.184Z,3.30
2023-03-06T17:52:37.287Z,3.20
2023-03-06T17:55:05.722Z,3.10
2023-03-06T17:57:34.953Z,3.30
2023-03-06T18:00:02.871Z,3.30
2023-03-06T18:02:30.662Z,3.10
2023-03-06T18:04:58.605Z,3.50
2023-03-06T18:07:26.636Z,3.20
2023-03-06T18:09:54.554Z,3.40
2023-03-06T18:12:22.420Z,3.30
2023-03-06T18:14:51.645Z,3.40
2023-03-06T18:17:19.575Z,3.20
2023-03-06T18:19:47.738Z,3.30
2023-03-06T18:22:15.584Z,3.20
2023-03-06T18:24:43.473Z,3.30
2023-03-06T18:27:11.285Z,3.40
2023-03-06T18:29:39.172Z,3.10
2023-03-06T18:32:10.547Z,3.30
2023-03-06T18:34:38.530Z,3.10
2023-03-06T18:37:06.546Z,3.20
2023-03-06T18:39:34.409Z,3.20
2023-03-06T18:42:03.018Z,3.20
2023-03-06T18:44:30.844Z,3.20
2023-03-06T18:46:59.079Z,3.30
2023-03-06T18:49:28.415Z,3.30
2023-03-06T18:51:56.307Z,3.20
2023-03-06T18:54:25.216Z,3.30
2023-03-06T18:56:53.023Z,3.30
2023-03-06T18:59:21.109Z,3.20
2023-03-06T19:01:49.791Z,3.20
2023-03-06T19:04:17.746Z,3.00
2023-03-06T19:06:47.002Z,3.10
2023-03-06T19:09:14.876Z,3.10
2023-03-06T19:11:43.659Z,3.20
2023-03-06T19:14:15.292Z,3.30
2023-03-06T19:16:43.648Z,3.10
2023-03-06T19:19:11.524Z,3.00
2023-03-06T19:21:39.382Z,3.20
2023-03-06T19:24:13.772Z,3.00
2023-03-06T19:26:41.846Z,3.10
2023-03-06T19:29:09.988Z,3.00
2023-03-06T19:31:37.916Z,3.20
2023-03-06T19:34:05.771Z,3.10
2023-03-06T19:36:34.215Z,3.10
2023-03-06T19:39:04.501Z,3.30
2023-03-06T19:41:34.246Z,3.30
2023-03-06T19:44:04.946Z,3.20
2023-03-06T19:46:32.962Z,3.10
2023-03-06T19:49:02.403Z,3.10
2023-03-06T19:51:30.460Z,3.40
2023-03-06T19:53:58.490Z,3.20
2023-03-06T19:56:28.852Z,3.10
2023-03-06T19:58:58.464Z,3.20
2023-03-06T20:01:28.204Z,3.20
2023-03-06T20:03:58.669Z,3.40
2023-03-06T20:06:28.166Z,3.30
2023-03-06T20:08:56.415Z,3.40
2023-03-06T20:11:26.218Z,3.40
2023-03-06T20:13:54.308Z,3.40
2023-03-06T20:16:23.573Z,3.40
2023-03-06T20:18:51.564Z,3.50
2023-03-06T20:21:20.174Z,3.30
2023-03-06T20:23:48.601Z,3.50
2023-03-06T20:26:16.844Z,3.50
2023-03-06T20:28:44.747Z,3.40
2023-03-06T20:31:16.427Z,3.40
2023-03-06T20:33:47.126Z,3.20
2023-03-06T20:36:16.281Z,3.40
2023-03-06T20:38:45.027Z,3.30
2023-03-06T20:41:15.415Z,3.40
2023-03-06T20:43:43.748Z,3.40
2023-03-06T20:46:13.230Z,3.40
2023-03-06T20:48:41.833Z,3.40
2023-03-06T20:51:21.212Z,3.40
2023-03-06T20:53:50.865Z,3.30
2023-03-06T20:56:21.196Z,3.50
2023-03-06T20:58:49.089Z,3.30
2023-03-06T21:01:20.590Z,3.40
2023-03-06T21:03:48.523Z,3.40
2023-03-06T21:06:18.286Z,3.40
2023-03-06T21:08:46.699Z,3.30
2023-03-06T21:11:14.585Z,3.50
2023-03-06T21:13:42.740Z,3.30
2023-03-06T21:16:13.538Z,3.30
2023-03-06T21:18:41.411Z,3.40
2023-03-06T21:21:10.089Z,3.40
2023-03-06T21:23:40.027Z,3.60
2023-03-06T21:26:08.131Z,3.30
2023-03-06T21:28:35.964Z,3.30
2023-03-06T21:31:06.790Z,3.50
2023-03-06T21:33:34.788Z,3.20
2023-03-06T21:36:02.852Z,3.20
2023-03-06T21:38:31.023Z,3.30
2023-03-06T21:41:07.896Z,3.30
2023-03-06T21:43:35.759Z,3.50
2023-03-06T21:46:03.914Z,3.30
2023-03-06T21:48:31.953Z,3.30
2023-03-06T21:51:07.515Z,3.20
2023-03-06T21:53:35.768Z,3.30
2023-03-06T21:56:05.739Z,3.20
2023-03-06T21:58:33.913Z,3.10
2023-03-06T22:01:01.991Z,3.10
2023-03-06T22:03:30.402Z,3.30
2023-03-06T22:06:07.280Z,3.20
2023-03-06T22:08:35.090Z,3.30
2023-03-06T22:11:08.226Z,3.20
2023-03-06T22:13:36.092Z,3.10
2023-03-06T22:16:03.991Z,3.00
2023-03-06T22:18:31.882Z,3.00
2023-03-06T22:20:59.719Z,3.00
2023-03-06T22:23:27.828Z,3.20
2023-03-06T22:25:55.640Z,3.00
2023-03-06T22:28:24.924Z,3.00
2023-03-06T22:30:52.698Z,2.90
2023-03-06T22:33:20.549Z,3.10
2023-03-06T22:35:48.384Z,3.00
2023-03-06T22:38:16.334Z,3.00
2023-03-06T22:40:44.177Z,3.10
2023-03-06T22:43:12.089Z,3.30
2023-03-06T22:45:41.314Z,3.20
2023-03-06T22:48:11.034Z,3.10
2023-03-06T22:50:39.232Z,2.90
2023-03-06T22:53:07.087Z,3.20
2023-03-06T22:55:36.240Z,3.00
2023-03-06T22:58:04.102Z,2.80
2023-03-06T23:00:31.991Z,3.20
2023-03-06T23:03:01.167Z,3.00
2023-03-06T23:05:29.685Z,3.00
2023-03-06T23:07:57.497Z,3.00
2023-03-06T23:10:25.551Z,2.90
2023-03-06T23:12:53.389Z,3.10
2023-03-06T23:15:21.684Z,3.20
2023-03-06T23:17:51.584Z,3.20
2023-03-06T23:20:21.098Z,3.10
2023-03-06T23:22:48.910Z,3.10
2023-03-06T23:25:16.917Z,3.20
2023-03-06T23:27:44.745Z,3.20
2023-03-06T23:30:13.756Z,3.00
2023-03-06T23:32:41.848Z,3.10
2023-03-06T23:35:10.884Z,3.10
2023-03-06T23:37:40.108Z,3.30
2023-03-06T23:40:09.920Z,3.10
2023-03-06T23:42:37.737Z,3.10
2023-03-06T23:45:07.198Z,3.20
2023-03-06T23:47:35.341Z,3.10
2023-03-06T23:50:03.211Z,3.30
2023-03-06T23:52:31.104Z,3.30
2023-03-06T23:55:00.320Z,3.00
2023-03-06T23:57:28.209Z,3.30
2023-03-06T23:59:56.043Z,3.30
